createdAt,value
2023-01-30T00:38:25.660Z,0.02
2023-01-30T00:45:53.394Z,0.03
2023-01-30T00:48:36.002Z,0.02
2023-01-30T00:55:20.323Z,0.03
2023-01-30T01:10:47.687Z,0.04
2023-01-30T01:13:14.463Z,0.03
2023-01-30T01:25:05.179Z,0.04
2023-01-30T01:27:10.018Z,0.03
2023-01-30T01:35:07.713Z,0.04
2023-01-30T01:42:01.324Z,0.03
2023-01-30T01:46:49.749Z,0.04
2023-01-30T01:58:54.417Z,0.03
2023-01-30T02:04:35.973Z,0.04
2023-01-30T02:07:05.365Z,0.03
2023-01-30T02:24:12.280Z,0.04
2023-01-30T02:26:54.143Z,0.03
2023-01-30T02:31:35.574Z,0.04
2023-01-30T02:33:35.096Z,0.03
2023-01-30T02:38:56.926Z,0.04
2023-01-30T04:53:39.845Z,0.05
2023-01-30T04:56:37.379Z,0.04
2023-01-30T05:01:50.493Z,0.05
2023-01-30T05:04:05.612Z,0.04
2023-01-30T05:06:07.016Z,0.05
2023-01-30T05:31:07.507Z,0.04
2023-01-30T05:38:06.449Z,0.05
2023-01-30T05:41:00.496Z,0.04
2023-01-30T05:50:15.959Z,0.05
2023-01-30T05:55:33.982Z,0.06
2023-01-30T06:02:48.202Z,0.05
2023-01-30T06:05:26.373Z,0.07
2023-01-30T06:12:58.941Z,0.09
2023-01-30T06:15:43.314Z,0.07
2023-01-30T06:20:29.846Z,0.09
2023-01-30T06:22:32.037Z,0.1
2023-01-30T06:27:58.893Z,0.14
2023-01-30T06:30:20.933Z,0.15
2023-01-30T06:32:29.190Z,0.19
2023-01-30T06:35:25.878Z,0.23
2023-01-30T06:38:08.499Z,0.34
2023-01-30T06:40:37.092Z,0.43
2023-01-30T06:42:51.334Z,0.65
2023-01-30T06:44:51.783Z,1.04
2023-01-30T06:47:40.475Z,1.56
2023-01-30T06:50:14.924Z,2.13
2023-01-30T06:52:35.559Z,3.09
2023-01-30T06:54:42.072Z,3.46
2023-01-30T06:57:36.707Z,3.67
2023-01-30T07:00:17.514Z,4.57
2023-01-30T07:02:44.209Z,6.42
2023-01-30T07:04:56.732Z,10.08
2023-01-30T07:06:55.438Z,14.35
2023-01-30T07:09:42.396Z,16.09
2023-01-30T07:11:56.293Z,17.25
2023-01-30T07:13:55.909Z,20.49
2023-01-30T07:16:43.872Z,22.46
2023-01-30T07:19:17.881Z,23.75
2023-01-30T07:21:37.390Z,30.57
2023-01-30T07:23:43.219Z,36.89
2023-01-30T07:26:37.455Z,45.98
2023-01-30T07:29:17.559Z,51.54
2023-01-30T07:31:43.545Z,57.4
2023-01-30T07:33:55.525Z,66.46
2023-01-30T07:35:53.463Z,67.38
2023-01-30T07:38:39.834Z,86.4
2023-01-30T07:41:11.783Z,122.12
2023-01-30T07:43:29.995Z,112.04
2023-01-30T07:45:34.031Z,116.28
2023-01-30T07:48:26.285Z,110.92
2023-01-30T07:51:04.717Z,138.68
2023-01-30T07:53:28.981Z,146.48
2023-01-30T07:55:39.158Z,177.1
2023-01-30T07:58:37.814Z,169.2
2023-01-30T08:01:22.457Z,215.8
2023-01-30T08:03:52.762Z,233
2023-01-30T08:06:09.096Z,207.3
2023-01-30T08:08:11.446Z,193.8
2023-01-30T08:11:01.988Z,161.72
2023-01-30T08:13:37.997Z,182.4
2023-01-30T08:16:00.436Z,143.84
2023-01-30T08:18:08.803Z,151.36
2023-01-30T08:21:05.413Z,129.68
2023-01-30T08:23:48.197Z,154.76
2023-01-30T08:26:16.986Z,162.44
2023-01-30T08:28:31.275Z,139.04
2023-01-30T08:30:31.918Z,165.3
2023-01-30T08:33:20.741Z,268
2023-01-30T08:35:55.467Z,261
2023-01-30T08:38:16.050Z,238
2023-01-30T08:40:22.755Z,242.4
2023-01-30T08:43:17.737Z,283
2023-01-30T08:45:58.608Z,186.3
2023-01-30T08:48:25.573Z,239.5
2023-01-30T08:50:38.462Z,329.6
2023-01-30T08:52:37.179Z,328
2023-01-30T08:55:24.370Z,344.1
2023-01-30T08:57:57.390Z,341.6
2023-01-30T09:00:16.397Z,340.4
2023-01-30T09:02:21.250Z,473.1
2023-01-30T09:05:14.178Z,351.2
2023-01-30T09:07:53.181Z,371.5
2023-01-30T09:10:18.367Z,290.3
2023-01-30T09:12:29.123Z,405.1
2023-01-30T09:14:26.089Z,593.7
2023-01-30T09:17:11.235Z,675.5
2023-01-30T09:19:42.610Z,531.3
2023-01-30T09:21:59.815Z,546
2023-01-30T09:24:02.872Z,534
2023-01-30T09:26:54.462Z,697.2
2023-01-30T09:29:31.951Z,437.1
2023-01-30T09:31:55.227Z,608.3
2023-01-30T09:34:04.634Z,822
2023-01-30T09:37:04.646Z,704.3
2023-01-30T09:39:46.122Z,631.3
2023-01-30T09:42:15.528Z,847.6
2023-01-30T09:44:31.133Z,568.9
2023-01-30T09:46:32.436Z,472.6
2023-01-30T09:49:21.908Z,411.3
2023-01-30T09:51:57.670Z,441.2
2023-01-30T09:54:19.295Z,458.2
2023-01-30T09:56:26.417Z,416.8
2023-01-30T09:59:22.344Z,450
2023-01-30T10:02:04.112Z,442.7
2023-01-30T10:04:31.882Z,675.5
2023-01-30T10:06:45.307Z,651.8
2023-01-30T10:08:44.925Z,619.2
2023-01-30T10:11:32.795Z,1437.4
2023-01-30T10:14:06.562Z,1136.6
2023-01-30T10:16:26.437Z,1427.8
2023-01-30T10:18:32.202Z,908.1
2023-01-30T10:21:26.184Z,875.8
2023-01-30T10:24:06.276Z,761.9
2023-01-30T10:26:32.248Z,707.8
2023-01-30T10:28:45.884Z,633.2
2023-01-30T10:30:41.840Z,705.2
2023-01-30T10:33:27.918Z,782.7
2023-01-30T10:35:59.885Z,669.4
2023-01-30T10:38:17.710Z,1445.1
2023-01-30T10:40:21.657Z,968.9
2023-01-30T10:43:13.867Z,925.7
2023-01-30T10:45:51.940Z,1272.3
2023-01-30T10:48:15.790Z,583.2
2023-01-30T10:50:25.856Z,618.8
2023-01-30T10:53:24.147Z,730.2
2023-01-30T10:56:08.584Z,748.8
2023-01-30T10:58:38.757Z,572.9
2023-01-30T11:00:54.827Z,545.4
2023-01-30T11:02:57.137Z,488.4
2023-01-30T11:05:47.457Z,495.5
2023-01-30T11:08:23.746Z,620.4
2023-01-30T11:10:46.056Z,462.2
2023-01-30T11:12:54.377Z,527.8
2023-01-30T11:15:51.002Z,493.2
2023-01-30T11:19:18.579Z,625.1
2023-01-30T11:21:02.055Z,809.9
2023-01-30T11:23:16.528Z,1201.2
2023-01-30T11:25:17.577Z,550.7
2023-01-30T11:28:05.983Z,396.3
2023-01-30T11:30:40.853Z,478.7
2023-01-30T11:33:01.337Z,499.3
2023-01-30T11:35:08.100Z,824.6
2023-01-30T11:38:03.270Z,1699
2023-01-30T11:40:43.904Z,841.6
2023-01-30T11:43:10.729Z,1278.4
2023-01-30T11:45:23.678Z,605.2
2023-01-30T11:47:22.376Z,1056.6
2023-01-30T11:50:20.035Z,1230.4
2023-01-30T11:52:42.587Z,1198
2023-01-30T11:55:01.571Z,931.2
2023-01-30T11:57:06.563Z,888.3
2023-01-30T12:00:00.133Z,559
2023-01-30T12:02:39.319Z,298.5
2023-01-30T12:05:04.557Z,236.8
2023-01-30T12:07:15.868Z,254.4
2023-01-30T12:09:12.931Z,181.8
2023-01-30T12:11:58.308Z,231.2
2023-01-30T12:14:29.640Z,222.8
2023-01-30T12:16:47.179Z,274.4
2023-01-30T12:18:50.347Z,377.4
2023-01-30T12:21:41.768Z,259
2023-01-30T12:24:19.422Z,234
2023-01-30T12:26:42.955Z,161.64
2023-01-30T12:28:52.290Z,299.6
2023-01-30T12:31:49.898Z,240.8
2023-01-30T12:34:33.577Z,282.3
2023-01-30T12:37:02.949Z,199.8
2023-01-30T12:39:18.311Z,246.7
2023-01-30T12:41:19.767Z,240.1
2023-01-30T12:44:09.538Z,296.5
2023-01-30T12:46:45.171Z,482.5
2023-01-30T12:49:11.240Z,517.4
2023-01-30T12:51:14.671Z,296.4
2023-01-30T12:54:10.656Z,428.4
2023-01-30T12:56:52.797Z,480.4
2023-01-30T12:59:20.774Z,615
2023-01-30T13:01:34.591Z,656.6
2023-01-30T13:03:34.512Z,627.8
2023-01-30T13:06:22.684Z,799.3
2023-01-30T13:08:56.796Z,506.5
2023-01-30T13:11:16.662Z,315.6
2023-01-30T13:13:22.526Z,184.1
2023-01-30T13:16:16.976Z,247.8
2023-01-30T13:18:56.983Z,213.2
2023-01-30T13:21:23.274Z,315.8
2023-01-30T13:23:34.993Z,234.8
2023-01-30T13:25:32.858Z,298
2023-01-30T13:28:19.395Z,296.1
2023-01-30T13:30:51.808Z,390.4
2023-01-30T13:33:09.986Z,611.3
2023-01-30T13:35:14.268Z,502.4
2023-01-30T13:38:06.911Z,664
2023-01-30T13:40:45.433Z,355.5
2023-01-30T13:43:09.776Z,347
2023-01-30T13:45:20.154Z,298.1
2023-01-30T13:48:18.883Z,400
2023-01-30T13:51:03.466Z,518.7
2023-01-30T13:53:34.047Z,396.4
2023-01-30T13:55:50.486Z,441.1
2023-01-30T13:57:52.782Z,385.1
2023-01-30T14:00:43.763Z,345.6
2023-01-30T14:03:20.359Z,321.6
2023-01-30T14:05:48.143Z,536.1
2023-01-30T14:07:51.569Z,768
2023-01-30T14:10:48.568Z,808.3
2023-01-30T14:13:32.345Z,681.2
2023-01-30T14:15:59.674Z,1002.5
2023-01-30T14:18:14.295Z,1073.6
2023-01-30T14:20:14.768Z,1000.6
2023-01-30T14:23:03.628Z,874.2
2023-01-30T14:25:38.661Z,580.6
2023-01-30T14:27:59.499Z,747.8
2023-01-30T14:30:06.140Z,897.2
2023-01-30T14:33:01.375Z,854.4
2023-01-30T14:35:42.470Z,1029.7
2023-01-30T14:38:09.285Z,779.8
2023-01-30T14:40:22.085Z,778.5
2023-01-30T14:42:20.906Z,490
2023-01-30T14:45:07.957Z,300.3
2023-01-30T14:47:46.608Z,312.1
2023-01-30T14:50:00.102Z,304.7
2023-01-30T14:52:05.033Z,496.9
2023-01-30T14:54:58.197Z,464.8
2023-01-30T14:57:37.605Z,437.6
2023-01-30T15:00:15.310Z,351.2
2023-01-30T15:02:14.163Z,356.9
2023-01-30T15:04:11.039Z,302.2
2023-01-30T15:06:56.036Z,288.6
2023-01-30T15:09:27.385Z,343
2023-01-30T15:11:44.595Z,308.4
2023-01-30T15:13:47.864Z,358.7
2023-01-30T15:16:39.625Z,289.9
2023-01-30T15:19:17.009Z,316.4
2023-01-30T15:21:40.562Z,316.1
2023-01-30T15:23:49.950Z,287.4
2023-01-30T15:26:47.746Z,338.5
2023-01-30T15:29:31.594Z,266.9
2023-01-30T15:32:01.271Z,306.5
2023-01-30T15:34:16.735Z,331.3
2023-01-30T15:36:18.328Z,245.6
2023-01-30T15:39:08.274Z,202.4
2023-01-30T15:41:44.096Z,171.2
2023-01-30T15:44:05.730Z,193.5
2023-01-30T15:46:13.396Z,178
2023-01-30T15:49:09.369Z,121.72
2023-01-30T15:51:51.195Z,145.12
2023-01-30T15:54:19.062Z,145.68
2023-01-30T15:56:32.831Z,130.12
2023-01-30T15:58:32.054Z,118.16
2023-01-30T16:01:20.309Z,105.96
2023-01-30T16:03:54.240Z,92.44
2023-01-30T16:06:14.064Z,76.98
2023-01-30T16:08:19.973Z,66.62
2023-01-30T16:11:14.204Z,55.3
2023-01-30T16:13:54.335Z,45.76
2023-01-30T16:16:20.393Z,33.72
2023-01-30T16:18:32.476Z,23.98
2023-01-30T16:20:30.377Z,16.2
2023-01-30T16:23:16.660Z,13.05
2023-01-30T16:25:49.096Z,8.75
2023-01-30T16:28:07.158Z,7.04
2023-01-30T16:30:11.110Z,4.16
2023-01-30T16:35:42.615Z,2.95
2023-01-30T16:38:06.381Z,2.01
2023-01-30T16:40:16.900Z,1.33
2023-01-30T16:43:15.475Z,0.92
2023-01-30T16:46:00.029Z,0.55
2023-01-30T16:48:30.375Z,0.41
2023-01-30T16:50:46.335Z,0.32
2023-01-30T16:52:48.802Z,0.29
2023-01-30T16:55:39.062Z,0.25
2023-01-30T16:58:15.744Z,0.19
2023-01-30T17:00:38.194Z,0.17
2023-01-30T17:02:46.537Z,0.16
2023-01-30T17:05:43.505Z,0.15
2023-01-30T17:13:09.324Z,0.16
2023-01-30T17:15:09.919Z,0.15
2023-01-30T17:22:54.570Z,0.12
2023-01-30T17:25:01.221Z,0.13
2023-01-30T17:33:04.253Z,0.12
2023-01-30T17:35:17.338Z,0.13
2023-01-30T17:40:02.843Z,0.11
2023-01-30T17:47:04.222Z,0.14
2023-01-30T17:49:38.317Z,0.1
2023-01-30T17:56:58.395Z,0.08
2023-01-30T17:59:38.643Z,0.1
2023-01-30T18:02:04.540Z,0.09
2023-01-30T18:04:16.655Z,0.11
2023-01-30T18:06:14.938Z,0.14
2023-01-30T18:09:00.941Z,0.11
2023-01-30T18:13:51.353Z,0.09
2023-01-30T18:15:55.435Z,0.08
2023-01-30T18:18:47.908Z,0.09
2023-01-30T18:23:50.869Z,0.08
2023-01-30T18:26:01.152Z,0.07
2023-01-30T18:31:44.665Z,0.06
2023-01-30T18:36:31.072Z,0.05
2023-01-30T18:44:01.156Z,0.06
2023-01-30T18:46:23.886Z,0.07
2023-01-30T18:48:32.398Z,0.05
2023-01-30T18:54:12.267Z,0.06
2023-01-30T18:58:55.794Z,0.05
2023-01-30T19:03:45.645Z,0.04
2023-01-30T19:08:41.351Z,0.03
2023-01-30T19:10:48.298Z,0.05
2023-01-30T19:13:43.379Z,0.06
2023-01-30T19:16:24.424Z,0.05
2023-01-30T19:18:51.638Z,0.04
2023-01-30T19:21:04.649Z,0.05
2023-01-30T19:25:50.525Z,0.04
2023-01-30T19:35:41.474Z,0.03
2023-01-30T19:47:39.576Z,0.02
2023-01-30T19:50:11.000Z,0.03
2023-01-30T19:54:31.523Z,0.04
2023-01-30T20:00:00.960Z,0.05
2023-01-30T20:04:34.062Z,0.06
2023-01-30T20:07:31.991Z,0.04
2023-01-30T20:15:00.683Z,0.05
2023-01-30T20:19:51.576Z,0.04
2023-01-30T20:29:53.258Z,0.05
2023-01-30T20:35:02.725Z,0.04
2023-01-30T20:39:15.994Z,0.03
2023-01-30T20:46:57.426Z,0.04
2023-01-30T20:51:57.369Z,0.03
2023-01-30T21:06:37.803Z,0.04
2023-01-30T21:16:25.326Z,0.03
2023-01-30T21:41:23.013Z,0.04
2023-01-30T21:46:28.345Z,0.03
2023-01-30T21:51:40.000Z,0.04
2023-01-30T21:53:54.527Z,0.03
2023-01-30T22:05:46.026Z,0.02
2023-01-30T22:16:01.820Z,0.03
2023-01-30T22:18:00.604Z,0.02
2023-01-30T22:27:44.640Z,0.03
2023-01-30T22:49:27.285Z,0.02
2023-01-30T23:05:10.245Z,0.03
2023-01-30T23:14:46.322Z,0.04
2023-01-30T23:17:21.822Z,0.03
2023-01-30T23:19:43.463Z,0.05
2023-01-30T23:21:51.111Z,0.04
2023-01-30T23:27:29.025Z,0.06
2023-01-30T23:29:56.900Z,0.03
2023-01-30T23:34:10.354Z,0.04
2023-01-30T23:39:32.260Z,0.03
